Map

Track Data

SID SEASON NUMBER BASIN SUBBASIN NAME ISO_TIME NATURE LAT LON WMO_WIND WMO_PRES WMO_AGENCY TRACK_TYPE DIST2LAND LANDFALL IFLAG USA_AGENCY USA_ATCF_ID USA_LAT USA_LON USA_RECORD USA_STATUS USA_WIND USA_PRES USA_SSHS USA_R34_NE USA_R34_SE USA_R34_SW USA_R34_NW USA_R50_NE USA_R50_SE USA_R50_SW USA_R50_NW USA_R64_NE USA_R64_SE USA_R64_SW USA_R64_NW USA_POCI USA_ROCI USA_RMW USA_EYE TOKYO_LAT TOKYO_LON TOKYO_GRADE TOKYO_WIND TOKYO_PRES TOKYO_R50_DIR TOKYO_R50_LONG TOKYO_R50_SHORT TOKYO_R30_DIR TOKYO_R30_LONG TOKYO_R30_SHORT TOKYO_LAND CMA_LAT CMA_LON CMA_CAT CMA_WIND CMA_PRES HKO_LAT HKO_LON HKO_CAT HKO_WIND HKO_PRES NEWDELHI_LAT NEWDELHI_LON NEWDELHI_GRADE NEWDELHI_WIND NEWDELHI_PRES NEWDELHI_CI NEWDELHI_DP NEWDELHI_POCI REUNION_LAT REUNION_LON REUNION_TYPE REUNION_WIND REUNION_PRES REUNION_TNUM REUNION_CI REUNION_RMW REUNION_R34_NE REUNION_R34_SE REUNION_R34_SW REUNION_R34_NW REUNION_R50_NE REUNION_R50_SE REUNION_R50_SW REUNION_R50_NW REUNION_R64_NE REUNION_R64_SE REUNION_R64_SW REUNION_R64_NW BOM_LAT BOM_LON BOM_TYPE BOM_WIND BOM_PRES BOM_TNUM BOM_CI BOM_RMW BOM_R34_NE BOM_R34_SE BOM_R34_SW BOM_R34_NW BOM_R50_NE BOM_R50_SE BOM_R50_SW BOM_R50_NW BOM_R64_NE BOM_R64_SE BOM_R64_SW BOM_R64_NW BOM_ROCI BOM_POCI BOM_EYE BOM_POS_METHOD BOM_PRES_METHOD NADI_LAT NADI_LON NADI_CAT NADI_WIND NADI_PRES WELLINGTON_LAT WELLINGTON_LON WELLINGTON_WIND WELLINGTON_PRES DS824_LAT DS824_LON DS824_STAGE DS824_WIND DS824_PRES TD9636_LAT TD9636_LON TD9636_STAGE TD9636_WIND TD9636_PRES TD9635_LAT TD9635_LON TD9635_WIND TD9635_PRES TD9635_ROCI NEUMANN_LAT NEUMANN_LON NEUMANN_CLASS NEUMANN_WIND NEUMANN_PRES MLC_LAT MLC_LON MLC_CLASS MLC_WIND MLC_PRES USA_GUST BOM_GUST BOM_GUST_PER REUNION_GUST REUNION_GUST_PER USA_SEAHGT USA_SEARAD_NE USA_SEARAD_SE USA_SEARAD_SW USA_SEARAD_NW STORM_SPEED STORM_DIR
1860021S16057 1860 5 SI MM NOT_NAMED 1860-01-21 06:00:00 NR -16.2000 57.1000 reunion main 438 428 _____O____O___ -1 -16.1000 57.3000 99 9.90000 -16.3000 56.9000 7 3 240
1860021S16057 1860 5 SI MM NOT_NAMED 1860-01-21 09:00:00 NR -16.2742 56.9692 main 428 428 _____P____P___ -1 -16.1623 57.2085 99 -16.3861 56.7300 7 3 240
1860021S16057 1860 5 SI MM NOT_NAMED 1860-01-21 12:00:00 NR -16.3456 56.8420 main 431 420 _____P____P___ -1 -16.2234 57.1161 99 -16.4677 56.5679 7 3 240
1860021S16057 1860 5 SI MM NOT_NAMED 1860-01-21 15:00:00 NR -16.4113 56.7220 main 422 413 _____P____P___ -1 -16.2822 57.0222 99 -16.5404 56.4219 7 3 241
1860021S16057 1860 5 SI MM NOT_NAMED 1860-01-21 18:00:00 NR -16.4687 56.6129 main 413 413 _____P____O___ -1 -16.3375 56.9257 99 -16.6000 56.3000 7 2 242
1860021S16057 1860 5 SI MM NOT_NAMED 1860-01-21 21:00:00 NR -16.5180 56.5158 main 416 405 _____P____P___ -1 -16.3880 56.8261 99 -16.6480 56.2055 7 2 241
1860021S16057 1860 5 SI MM NOT_NAMED 1860-01-22 00:00:00 NR -16.5713 56.4221 main 408 408 _____P____P___ -1 -16.4328 56.7224 99 -16.7098 56.1218 7 2 236
1860021S16057 1860 5 SI MM NOT_NAMED 1860-01-22 03:00:00 NR -16.6436 56.3206 main 411 400 _____P____P___ -1 -16.4705 56.6140 99 -16.8167 56.0272 7 3 230
1860021S16057 1860 5 SI MM NOT_NAMED 1860-01-22 06:00:00 NR -16.7500 56.2000 reunion main 404 387 _____O____O___ -1 -16.5000 56.5000 99 9.90000 -17.0000 55.9000 7 4 227
1860021S16057 1860 5 SI MM NOT_NAMED 1860-01-22 09:00:00 NR -16.9090 56.0277 main 391 375 _____P____P___ -1 -16.5217 56.3801 99 -17.2962 55.6753 7 5 224
1860021S16057 1860 5 SI MM NOT_NAMED 1860-01-22 12:00:00 NR -17.1051 55.8384 main 380 366 _____P____P___ -1 -16.5423 56.2555 99 -17.6679 55.4213 7 6 221
1860021S16057 1860 5 SI MM NOT_NAMED 1860-01-22 15:00:00 NR -17.3253 55.6547 main 366 352 _____P____P___ -1 -16.5699 56.1278 99 -18.0806 55.1816 7 6 216
1860021S16057 1860 5 SI MM NOT_NAMED 1860-01-22 18:00:00 NR -17.5564 55.4994 main 350 339 _____P____O___ -1 -16.6127 55.9988 99 -18.5000 55.0000 7 5 208
1860021S16057 1860 5 SI MM NOT_NAMED 1860-01-22 21:00:00 NR -17.7829 55.3943 main 339 329 _____P____P___ -1 -16.6789 55.8699 99 -18.8870 54.9186 7 5 200
1860021S16057 1860 5 SI MM NOT_NAMED 1860-01-23 00:00:00 NR -18.0245 55.3224 main 329 302 _____P____P___ -1 -16.7767 55.7428 99 -19.2723 54.9020 7 5 193
1860021S16057 1860 5 SI MM NOT_NAMED 1860-01-23 03:00:00 NR -18.2804 55.2767 main 302 279 _____P____P___ -1 -16.9143 55.6190 99 -19.6464 54.9344 7 5 187
1860021S16057 1860 5 SI MM NOT_NAMED 1860-01-23 06:00:00 NR -18.5500 55.2500 reunion main 279 246 _____O____O___ -1 -17.1000 55.5000 99 9.90000 -20.0000 55.0000 7 6 187
1860021S16057 1860 5 SI MM NOT_NAMED 1860-01-23 09:00:00 NR -18.8381 55.2013 main 246 212 _____P____P___ -1 -17.3384 55.3356 99 -20.3378 55.0670 7 6 188
1860021S16057 1860 5 SI MM NOT_NAMED 1860-01-23 12:00:00 NR -19.1378 55.1654 main 212 180 _____P____P___ -1 -17.6232 55.1685 99 -20.6525 55.1623 7 6 185
1860021S16057 1860 5 SI MM NOT_NAMED 1860-01-23 15:00:00 NR -19.4449 55.1427 main 180 146 _____P____P___ -1 -17.9488 55.0090 99 -20.9409 55.2764 7 6 183
1860021S16057 1860 5 SI MM NOT_NAMED 1860-01-23 18:00:00 NR -19.7549 55.1339 main 135 113 _____P____O___ -1 -18.3099 54.8677 99 -21.2000 55.4000 7 6 181
1860021S16057 1860 5 SI MM NOT_NAMED 1860-01-23 21:00:00 NR -20.0628 55.1367 main 102 67 _____P____P___ -1 -18.7009 54.7553 99 -21.4247 55.5180 7 6 0
1860021S16057 1860 5 SI MM NOT_NAMED 1860-01-24 00:00:00 NR -20.3695 55.1627 main 67 35 _____P____P___ -1 -19.1165 54.6826 99 -21.6225 55.6427 7 6 172
1860021S16057 1860 5 SI MM NOT_NAMED 1860-01-24 03:00:00 NR -20.6802 55.2158 main 35 0 _____P____P___ -1 -19.5513 54.6604 99 -21.8090 55.7711 7 6 168
1860021S16057 1860 5 SI MM NOT_NAMED 1860-01-24 06:00:00 NR -21.0000 55.3000 reunion main 0 0 _____O____O___ -1 -20.0000 54.7000 99 9.90000 -22.0000 55.9000 7 7 163
1860021S16057 1860 5 SI MM NOT_NAMED 1860-01-24 09:00:00 NR -21.3615 55.4380 main 11 10 _____P____P___ -1 -20.4971 54.8591 99 -22.2259 56.0170 7 8 159
1860021S16057 1860 5 SI MM NOT_NAMED 1860-01-24 12:00:00 NR -21.7392 55.6103 main 33 33 _____P____P___ -1 -21.0211 55.0855 99 -22.4574 56.1352 7 8 155
1860021S16057 1860 5 SI MM NOT_NAMED 1860-01-24 15:00:00 NR -22.1203 55.8117 main 80 80 _____P____P___ -1 -21.5554 55.3627 99 -22.6852 56.2608 7 9 152
1860021S16057 1860 5 SI MM NOT_NAMED 1860-01-24 18:00:00 NR -22.4916 56.0368 main 129 129 _____P____O___ -1 -22.0832 55.6736 99 -22.9000 56.4000 7 8 149
1860021S16057 1860 5 SI MM NOT_NAMED 1860-01-24 21:00:00 NR -22.8414 56.2791 main 172 172 _____P____P___ -1 -22.5880 56.0008 99 -23.0948 56.5573 7 8 147
1860021S16057 1860 5 SI MM NOT_NAMED 1860-01-25 00:00:00 NR -23.1473 56.4993 main 211 211 _____P____P___ -1 -23.0532 56.3265 99 -23.2727 56.7296 7 7 146
1860021S16057 1860 5 SI MM NOT_NAMED 1860-01-25 03:00:00 NR -23.4548 56.7257 main 260 260 _____P____P___ -1 -23.4626 56.6324 99 -23.4393 56.9122 7 7 147
1860021S16057 1860 5 SI MM NOT_NAMED 1860-01-25 06:00:00 NR -23.7600 56.9400 reunion main 299 299 _____O____O___ -1 -23.8000 56.9000 99 9.90000 -23.6000 57.1000 7 7 149
1860021S16057 1860 5 SI MM NOT_NAMED 1860-01-25 09:00:00 NR -24.0539 57.1147 main 338 338 _____P________ -1 -24.0539 57.1147 99 7 6 147
1860021S16057 1860 5 SI MM NOT_NAMED 1860-01-25 12:00:00 NR -24.2311 57.2789 main 358 358 _____P________ -1 -24.2311 57.2789 99 7 4 138
1860021S16057 1860 5 SI MM NOT_NAMED 1860-01-25 15:00:00 NR -24.3426 57.3996 main 372 372 _____P________ -1 -24.3426 57.3996 99 7 3 132
1860021S16057 1860 5 SI MM NOT_NAMED 1860-01-25 18:00:00 NR -24.3995 57.4837 main 387 387 _____P________ -1 -24.3995 57.4837 99 1 119
1860021S16057 1860 5 SI MM NOT_NAMED 1860-01-25 21:00:00 NR -24.4128 57.5385 main 387 387 _____P________ -1 -24.4128 57.5385 99 1 86
1860021S16057 1860 5 SI MM NOT_NAMED 1860-01-26 00:00:00 NR -24.3934 57.5712 main 392 392 _____P________ -1 -24.3934 57.5712 99 1 28
1860021S16057 1860 5 SI MM NOT_NAMED 1860-01-26 03:00:00 NR -24.3521 57.5893 main 392 382 _____P________ -1 -24.3521 57.5893 99 1 16
1860021S16057 1860 5 SI MM NOT_NAMED 1860-01-26 06:00:00 NR -24.3000 57.6000 reunion main 382 _____O________ -1 -24.3000 57.6000 99 9.90000 1 21

About IBTrACS Database

This database is a web-friendly format of International Best Track Archive for Climate Stewardship (IBTrACS), a global best track data archive curated by NOAA dating back to 1842.

Updated: 2021-11-26